Pawnee, Texas
Current Conditions -  °F | °C
As of 10:35 AM on Wednesday 22 Oct 2014 (Local Time) from KBEA Reporting Station
Clear Clear  
Wind Chill: 77°   Ceiling: Unl
Heat Index: 79°   Visibility: 10mi
Dew Point: 63°   Wind: 12mph
Humidity: 61%   Direction: 80°E
Pressure: 30.08"   Gusts: 16mph
Location:  28.65°N, 98°W
Report Text: KBEA 221535Z AUTO 08010G14KT 10SM CLR 25/17 A3008 RMK AO2 T02520172
Loading
Personal Weather Stations






























Interactive Weather Map
Tropical Storm Tracking
New forecast layout! Learn more

10-Day Weather Forecast

Advertisements
Track Severe Weather on mobile